createdAt,value
2022-12-04T00:00:13.332Z,68.70
2022-12-04T00:02:41.224Z,68.20
2022-12-04T00:05:09.119Z,68.50
2022-12-04T00:07:36.596Z,68.70
2022-12-04T00:10:04.099Z,68.60
2022-12-04T00:12:30.932Z,68.60
2022-12-04T00:15:24.536Z,68.50
2022-12-04T00:17:48.156Z,68.30
2022-12-04T00:20:15.103Z,67.70
2022-12-04T00:22:42.010Z,67.40
2022-12-04T00:25:09.000Z,67.50
2022-12-04T00:27:35.802Z,68.00
2022-12-04T00:30:02.623Z,68.10
2022-12-04T00:32:30.286Z,68.10
2022-12-04T00:34:57.222Z,68.20
2022-12-04T00:37:24.116Z,67.90
2022-12-04T00:39:50.909Z,67.80
2022-12-04T00:42:17.669Z,68.10
2022-12-04T00:44:44.477Z,68.10
2022-12-04T00:47:11.257Z,68.10
2022-12-04T00:49:38.152Z,68.10
2022-12-04T00:52:04.924Z,68.10
2022-12-04T00:54:32.160Z,68.00
2022-12-04T00:56:58.960Z,68.00
2022-12-04T00:59:25.744Z,68.00
2022-12-04T01:01:52.997Z,67.90
2022-12-04T01:04:19.799Z,68.00
2022-12-04T01:06:47.137Z,67.90
2022-12-04T01:09:13.998Z,67.80
2022-12-04T01:11:40.833Z,68.10
2022-12-04T01:14:07.687Z,68.20
2022-12-04T01:16:38.092Z,68.40
2022-12-04T01:19:07.025Z,68.40
2022-12-04T01:21:34.649Z,68.60
2022-12-04T01:24:01.960Z,68.20
2022-12-04T01:26:28.931Z,68.10
2022-12-04T01:28:57.207Z,68.00
2022-12-04T01:31:24.822Z,68.20
2022-12-04T01:33:52.582Z,68.30
2022-12-04T01:36:23.437Z,67.70
2022-12-04T01:38:50.426Z,68.10
2022-12-04T01:41:20.622Z,68.20
2022-12-04T01:44:07.572Z,68.10
2022-12-04T01:46:34.458Z,67.70
2022-12-04T01:49:02.750Z,67.40
2022-12-04T01:51:35.816Z,67.40
2022-12-04T01:54:07.577Z,67.50
2022-12-04T01:56:59.484Z,67.40
2022-12-04T01:59:31.233Z,67.60
2022-12-04T02:02:09.243Z,67.50
2022-12-04T02:04:37.626Z,67.50
2022-12-04T02:07:04.567Z,67.30
2022-12-04T02:09:32.924Z,67.30
2022-12-04T02:12:08.285Z,68.20
2022-12-04T02:14:43.943Z,67.70
2022-12-04T02:17:25.262Z,67.90
2022-12-04T02:20:04.221Z,67.70
2022-12-04T02:23:05.604Z,67.70
2022-12-04T02:25:35.251Z,67.40
2022-12-04T02:28:10.070Z,67.10
2022-12-04T02:30:41.308Z,67.10
2022-12-04T02:33:31.620Z,67.00
2022-12-04T02:36:25.852Z,67.10
2022-12-04T02:38:59.230Z,67.10
2022-12-04T02:41:37.182Z,66.90
2022-12-04T02:44:16.744Z,66.90
2022-12-04T02:46:47.573Z,67.00
2022-12-04T02:49:23.830Z,67.20
2022-12-04T02:51:52.561Z,67.40
2022-12-04T02:54:32.737Z,68.10
2022-12-04T02:57:01.764Z,68.40
2022-12-04T02:59:42.712Z,68.70
2022-12-04T03:02:15.695Z,68.90
2022-12-04T03:04:44.152Z,69.00
2022-12-04T03:07:15.798Z,68.90
2022-12-04T03:09:47.824Z,69.10
2022-12-04T03:12:20.466Z,69.20
2022-12-04T03:15:02.688Z,69.20
2022-12-04T03:17:47.807Z,69.30
2022-12-04T03:20:16.716Z,69.40
2022-12-04T03:22:47.406Z,69.20
2022-12-04T03:25:14.437Z,69.30
2022-12-04T03:28:05.169Z,69.10
2022-12-04T03:30:50.043Z,69.20
2022-12-04T03:33:22.032Z,69.20
2022-12-04T03:36:16.591Z,69.00
2022-12-04T03:38:59.056Z,69.10
2022-12-04T03:41:45.085Z,69.00
2022-12-04T03:44:22.249Z,69.00
2022-12-04T03:47:09.861Z,69.10
2022-12-04T03:50:03.414Z,69.20
2022-12-04T03:52:43.127Z,69.30
2022-12-04T03:55:48.965Z,69.30
2022-12-04T03:58:22.189Z,69.40
2022-12-04T04:00:52.726Z,69.20
2022-12-04T04:03:43.446Z,69.20
2022-12-04T04:06:16.442Z,69.30
2022-12-04T04:08:48.164Z,69.50
2022-12-04T04:11:27.825Z,69.50
2022-12-04T04:14:21.184Z,69.50
2022-12-04T04:17:12.765Z,69.50
2022-12-04T04:20:03.366Z,69.60
2022-12-04T04:22:54.507Z,69.60
2022-12-04T04:25:25.723Z,69.30
2022-12-04T04:27:57.679Z,69.10
2022-12-04T04:30:25.922Z,69.00
2022-12-04T04:33:17.598Z,68.90
2022-12-04T04:36:07.824Z,69.00
2022-12-04T04:39:00.685Z,68.90
2022-12-04T04:41:39.569Z,69.10
2022-12-04T04:44:15.538Z,69.00
2022-12-04T04:46:50.035Z,69.10
2022-12-04T04:49:19.945Z,69.30
2022-12-04T04:51:48.141Z,69.20
2022-12-04T04:54:17.445Z,69.10
2022-12-04T04:56:46.354Z,69.00
2022-12-04T04:59:14.245Z,68.60
2022-12-04T05:01:43.804Z,68.60
2022-12-04T05:04:10.987Z,68.80
2022-12-04T05:06:37.805Z,69.00
2022-12-04T05:09:05.175Z,69.30
2022-12-04T05:11:32.608Z,69.50
2022-12-04T05:13:59.448Z,69.70
2022-12-04T05:16:26.311Z,70.00
2022-12-04T05:19:11.989Z,70.20
2022-12-04T05:21:38.872Z,70.70
2022-12-04T05:24:05.976Z,70.90
2022-12-04T05:26:32.815Z,71.30
2022-12-04T05:28:59.649Z,71.50
2022-12-04T05:31:26.641Z,71.70
2022-12-04T05:33:54.201Z,72.10
2022-12-04T05:36:21.086Z,72.30
2022-12-04T05:38:47.882Z,72.50
2022-12-04T05:41:14.733Z,72.60
2022-12-04T05:43:41.584Z,72.70
2022-12-04T05:46:09.233Z,72.90
2022-12-04T05:48:36.135Z,73.10
2022-12-04T05:51:10.604Z,73.30
2022-12-04T05:53:38.308Z,73.50
2022-12-04T05:56:06.350Z,73.60
2022-12-04T05:58:36.552Z,73.80
2022-12-04T06:01:16.205Z,73.80
2022-12-04T06:03:43.119Z,73.90
2022-12-04T06:06:21.894Z,74.00
2022-12-04T06:08:53.547Z,74.00
2022-12-04T06:11:24.379Z,74.10
2022-12-04T06:13:51.777Z,74.10
2022-12-04T06:16:24.160Z,74.10
2022-12-04T06:18:53.292Z,74.20
2022-12-04T06:21:22.625Z,74.20
2022-12-04T06:23:49.500Z,74.30
2022-12-04T06:26:16.473Z,74.30
2022-12-04T06:28:43.589Z,74.20
2022-12-04T06:31:12.444Z,74.30
2022-12-04T06:33:40.045Z,74.30
2022-12-04T06:36:14.247Z,74.40
2022-12-04T06:38:41.548Z,74.30
2022-12-04T06:41:10.644Z,74.40
2022-12-04T06:43:37.656Z,74.40
2022-12-04T06:46:10.721Z,74.40
2022-12-04T06:48:38.324Z,74.40
2022-12-04T06:51:08.801Z,74.40
2022-12-04T06:53:36.392Z,74.50
2022-12-04T06:56:07.372Z,74.40
2022-12-04T06:58:34.780Z,74.30
2022-12-04T07:01:10.222Z,74.30
2022-12-04T07:03:37.977Z,74.30
2022-12-04T07:06:24.248Z,74.10
2022-12-04T07:08:58.249Z,73.90
2022-12-04T07:11:25.016Z,73.80
2022-12-04T07:13:52.211Z,73.70
2022-12-04T07:16:21.307Z,73.50
2022-12-04T07:18:54.080Z,73.40
2022-12-04T07:21:23.506Z,73.40
2022-12-04T07:23:52.912Z,73.20
2022-12-04T07:26:21.073Z,73.20
2022-12-04T07:28:48.583Z,73.10
2022-12-04T07:31:19.172Z,73.10
2022-12-04T07:33:46.553Z,73.00
2022-12-04T07:36:16.202Z,72.90
2022-12-04T07:38:43.652Z,72.80
2022-12-04T07:41:12.511Z,72.70
2022-12-04T07:43:40.290Z,72.70
2022-12-04T07:46:10.633Z,72.80
2022-12-04T07:48:37.553Z,72.70
2022-12-04T07:51:19.669Z,72.60
2022-12-04T07:53:47.061Z,72.50
2022-12-04T07:56:14.647Z,72.50
2022-12-04T07:58:42.331Z,73.00
2022-12-04T08:01:15.054Z,72.40
2022-12-04T08:03:47.717Z,72.40
2022-12-04T08:06:17.826Z,72.30
2022-12-04T08:08:44.948Z,72.30
2022-12-04T08:11:13.925Z,72.20
2022-12-04T08:13:40.824Z,72.10
2022-12-04T08:16:10.048Z,72.20
2022-12-04T08:18:37.717Z,72.20
2022-12-04T08:21:12.974Z,72.20
2022-12-04T08:23:41.327Z,72.30
2022-12-04T08:26:09.240Z,72.30
2022-12-04T08:28:36.734Z,72.20
2022-12-04T08:31:25.199Z,72.00
2022-12-04T08:33:54.194Z,71.90
2022-12-04T08:36:22.397Z,71.90
2022-12-04T08:38:49.789Z,71.70
2022-12-04T08:41:18.424Z,71.70
2022-12-04T08:43:45.585Z,71.60
2022-12-04T08:46:14.632Z,71.50
2022-12-04T08:48:41.769Z,71.50
2022-12-04T08:51:17.144Z,71.60
2022-12-04T08:53:44.501Z,71.70
2022-12-04T08:56:11.479Z,71.60
2022-12-04T08:58:38.337Z,71.60
2022-12-04T09:01:13.001Z,71.70
2022-12-04T09:03:40.623Z,71.50
2022-12-04T09:06:10.497Z,71.40
2022-12-04T09:08:37.737Z,71.30
2022-12-04T09:11:11.599Z,71.20
2022-12-04T09:13:38.957Z,71.10
2022-12-04T09:16:08.489Z,71.10
2022-12-04T09:18:37.080Z,71.30
2022-12-04T09:21:06.600Z,71.50
2022-12-04T09:23:35.164Z,71.90
2022-12-04T09:26:02.337Z,71.90
2022-12-04T09:28:29.705Z,72.30
2022-12-04T09:31:01.955Z,72.30
2022-12-04T09:33:30.620Z,72.00
2022-12-04T09:36:01.633Z,72.10
2022-12-04T09:38:29.256Z,71.70
2022-12-04T09:41:20.884Z,71.50
2022-12-04T09:43:58.213Z,71.20
2022-12-04T09:46:51.355Z,70.90
2022-12-04T09:49:36.525Z,70.60
2022-12-04T09:52:09.377Z,70.40
2022-12-04T09:54:41.208Z,70.50
2022-12-04T09:57:29.318Z,70.40
2022-12-04T09:59:56.742Z,70.10
2022-12-04T10:02:40.139Z,69.70
2022-12-04T10:05:28.056Z,69.70
2022-12-04T10:08:03.999Z,69.40
2022-12-04T10:10:37.431Z,69.30
2022-12-04T10:13:30.104Z,69.20
2022-12-04T10:16:17.696Z,69.30
2022-12-04T10:19:13.640Z,69.50
2022-12-04T10:21:52.384Z,69.40
2022-12-04T10:24:46.188Z,69.70
2022-12-04T10:27:21.729Z,69.60
2022-12-04T10:29:53.585Z,69.50
2022-12-04T10:32:25.644Z,69.40
2022-12-04T10:34:56.469Z,69.60
2022-12-04T10:37:24.341Z,69.80
2022-12-04T10:40:02.653Z,69.80
2022-12-04T10:42:42.481Z,69.80
2022-12-04T10:45:13.370Z,69.60
2022-12-04T10:47:45.720Z,69.90
2022-12-04T10:50:19.265Z,70.10
2022-12-04T10:52:46.325Z,70.10
2022-12-04T10:55:13.972Z,70.00
2022-12-04T10:57:44.377Z,70.20
2022-12-04T11:00:27.957Z,70.30
2022-12-04T11:02:57.494Z,70.40
2022-12-04T11:05:37.521Z,70.40
2022-12-04T11:08:06.741Z,70.50
2022-12-04T11:10:39.397Z,70.30
2022-12-04T11:13:13.157Z,70.30
2022-12-04T11:15:49.711Z,70.30
2022-12-04T11:18:28.954Z,70.40
2022-12-04T11:21:05.440Z,70.40
2022-12-04T11:23:35.694Z,70.40
2022-12-04T11:26:06.274Z,70.80
2022-12-04T11:28:41.752Z,70.60
2022-12-04T11:31:16.162Z,70.60
2022-12-04T11:33:58.598Z,70.80
2022-12-04T11:36:30.359Z,70.60
2022-12-04T11:39:11.173Z,70.60
2022-12-04T11:41:38.492Z,70.40
2022-12-04T11:44:07.415Z,70.30
2022-12-04T11:46:34.901Z,70.30
2022-12-04T11:49:03.713Z,70.30
2022-12-04T11:51:39.565Z,70.30
2022-12-04T11:54:25.486Z,70.30
2022-12-04T11:57:30.470Z,70.20
2022-12-04T12:00:11.552Z,70.40
2022-12-04T12:02:49.882Z,70.50
2022-12-04T12:05:53.804Z,71.50
2022-12-04T12:08:29.536Z,72.70
2022-12-04T12:11:20.912Z,73.10
2022-12-04T12:14:05.241Z,71.60
2022-12-04T12:16:34.840Z,70.00
2022-12-04T12:19:08.675Z,69.30
2022-12-04T12:21:38.313Z,68.40
2022-12-04T12:24:18.682Z,68.60
2022-12-04T12:27:29.867Z,67.90
2022-12-04T12:30:20.652Z,67.80
2022-12-04T12:32:47.411Z,67.60
2022-12-04T12:35:24.860Z,67.30
2022-12-04T12:37:54.470Z,67.30
2022-12-04T12:40:39.543Z,67.30
2022-12-04T12:43:31.030Z,67.50
2022-12-04T12:46:31.165Z,68.30
2022-12-04T12:49:08.067Z,67.80
2022-12-04T12:51:44.809Z,67.90
2022-12-04T12:54:34.487Z,67.90
2022-12-04T12:57:07.929Z,68.20
2022-12-04T12:59:47.651Z,68.30
2022-12-04T13:02:39.040Z,68.30
2022-12-04T13:05:10.966Z,68.30
2022-12-04T13:07:59.038Z,68.30
2022-12-04T13:10:28.749Z,68.70
2022-12-04T13:13:02.182Z,68.50
2022-12-04T13:15:41.160Z,68.70
2022-12-04T13:18:11.905Z,68.90
2022-12-04T13:20:54.018Z,68.80
2022-12-04T13:23:40.510Z,68.80
2022-12-04T13:26:49.511Z,68.80
2022-12-04T13:29:42.540Z,68.60
2022-12-04T13:32:48.250Z,68.40
2022-12-04T13:35:42.835Z,68.50
2022-12-04T13:38:28.472Z,68.60
2022-12-04T13:41:05.306Z,68.60
2022-12-04T13:43:41.157Z,68.50
2022-12-04T13:46:35.467Z,68.60
2022-12-04T13:49:27.069Z,68.70
2022-12-04T13:51:55.024Z,68.70
2022-12-04T13:54:28.788Z,68.60
2022-12-04T13:57:17.317Z,68.50
2022-12-04T13:59:45.191Z,68.70
2022-12-04T14:02:27.930Z,68.80
2022-12-04T14:05:10.129Z,68.90
2022-12-04T14:07:42.832Z,69.00
2022-12-04T14:10:15.879Z,69.10
2022-12-04T14:12:50.002Z,69.00
2022-12-04T14:15:28.836Z,69.70
2022-12-04T14:18:17.573Z,69.10
2022-12-04T14:20:44.948Z,69.10
2022-12-04T14:23:26.371Z,69.10
2022-12-04T14:25:59.300Z,69.00
2022-12-04T14:28:30.544Z,69.00
2022-12-04T14:31:17.730Z,68.80
2022-12-04T14:33:58.300Z,68.90
2022-12-04T14:36:28.187Z,68.90
2022-12-04T14:39:23.281Z,68.90
2022-12-04T14:41:50.666Z,69.00
2022-12-04T14:44:28.825Z,69.00
2022-12-04T14:47:04.913Z,69.20
2022-12-04T14:49:31.674Z,69.30
2022-12-04T14:52:31.705Z,69.20
2022-12-04T14:55:25.917Z,69.10
2022-12-04T14:58:21.277Z,69.10
2022-12-04T15:00:53.561Z,69.10
2022-12-04T15:03:21.612Z,69.10
2022-12-04T15:05:50.339Z,69.00
2022-12-04T15:08:17.664Z,68.90
2022-12-04T15:11:09.288Z,69.00
2022-12-04T15:13:37.913Z,69.00
2022-12-04T15:16:19.422Z,69.00
2022-12-04T15:18:56.602Z,68.90
2022-12-04T15:21:28.405Z,68.80
2022-12-04T15:23:55.301Z,68.90
2022-12-04T15:26:24.210Z,69.50
2022-12-04T15:28:55.829Z,68.90
2022-12-04T15:31:26.654Z,69.00
2022-12-04T15:33:58.478Z,68.90
2022-12-04T15:36:51.757Z,68.80
2022-12-04T15:39:28.071Z,68.70
2022-12-04T15:42:06.413Z,68.60
2022-12-04T15:44:35.305Z,68.70
2022-12-04T15:47:15.066Z,68.80
2022-12-04T15:49:42.057Z,68.90
2022-12-04T15:52:21.661Z,68.80
2022-12-04T15:54:57.310Z,68.90
2022-12-04T15:57:36.670Z,69.00
2022-12-04T16:00:06.902Z,69.00
2022-12-04T16:02:36.615Z,69.00
2022-12-04T16:05:35.653Z,69.10
2022-12-04T16:08:22.807Z,69.10
2022-12-04T16:10:59.124Z,69.10
2022-12-04T16:13:38.229Z,70.00
2022-12-04T16:16:17.736Z,69.40
2022-12-04T16:18:45.652Z,69.50
2022-12-04T16:21:17.369Z,69.70
2022-12-04T16:23:45.213Z,69.80
2022-12-04T16:26:14.353Z,69.80
2022-12-04T16:28:41.843Z,69.90
2022-12-04T16:31:13.031Z,69.90
2022-12-04T16:33:40.590Z,69.90
2022-12-04T16:36:09.885Z,69.90
2022-12-04T16:38:36.862Z,69.90
2022-12-04T16:41:07.476Z,69.90
2022-12-04T16:43:34.281Z,69.90
2022-12-04T16:46:02.252Z,70.00
2022-12-04T16:48:32.119Z,70.10
2022-12-04T16:50:58.944Z,70.20
2022-12-04T16:53:25.827Z,70.10
2022-12-04T16:55:53.400Z,70.10
2022-12-04T16:58:21.404Z,70.00
2022-12-04T17:00:56.217Z,69.90
2022-12-04T17:03:29.567Z,69.80
2022-12-04T17:05:57.232Z,69.60
2022-12-04T17:08:24.437Z,69.50
2022-12-04T17:10:51.861Z,69.20
2022-12-04T17:13:20.126Z,69.20
2022-12-04T17:15:47.072Z,69.10
2022-12-04T17:18:20.591Z,69.00
2022-12-04T17:20:48.030Z,68.60
2022-12-04T17:23:15.170Z,68.50
2022-12-04T17:25:42.424Z,68.30
2022-12-04T17:28:09.543Z,68.10
2022-12-04T17:30:36.711Z,68.00
2022-12-04T17:33:04.734Z,68.10
2022-12-04T17:35:31.702Z,68.00
2022-12-04T17:38:05.421Z,68.00
2022-12-04T17:40:32.793Z,68.00
2022-12-04T17:42:59.745Z,67.80
2022-12-04T17:45:26.728Z,67.50
2022-12-04T17:47:53.493Z,68.20
2022-12-04T17:50:20.580Z,67.70
2022-12-04T17:52:47.491Z,67.80
2022-12-04T17:55:14.389Z,67.80
2022-12-04T17:57:41.174Z,67.80
2022-12-04T18:00:08.575Z,67.80
2022-12-04T18:02:36.296Z,67.60
2022-12-04T18:05:04.279Z,67.70
2022-12-04T18:07:31.548Z,67.70
2022-12-04T18:09:58.662Z,67.60
2022-12-04T18:12:25.784Z,67.80
2022-12-04T18:14:53.710Z,67.80
2022-12-04T18:17:21.813Z,67.80
2022-12-04T18:19:48.649Z,67.80
2022-12-04T18:22:15.477Z,68.50
2022-12-04T18:24:42.314Z,67.80
2022-12-04T18:27:09.244Z,68.00
2022-12-04T18:29:36.378Z,67.90
2022-12-04T18:32:03.295Z,68.00
2022-12-04T18:34:30.229Z,68.10
2022-12-04T18:36:57.024Z,68.10
2022-12-04T18:39:25.897Z,68.20
2022-12-04T18:41:56.264Z,68.60
2022-12-04T18:44:23.876Z,68.50
2022-12-04T18:46:50.832Z,68.70
2022-12-04T18:49:17.727Z,68.50
2022-12-04T18:51:49.642Z,68.50
2022-12-04T18:54:20.520Z,68.50
2022-12-04T18:56:47.561Z,68.70
2022-12-04T18:59:17.125Z,69.20
2022-12-04T19:01:44.493Z,68.40
2022-12-04T19:04:13.289Z,68.50
2022-12-04T19:06:41.566Z,68.40
2022-12-04T19:09:12.762Z,68.40
2022-12-04T19:11:40.266Z,68.60
2022-12-04T19:14:16.181Z,68.50
2022-12-04T19:16:48.272Z,68.70
2022-12-04T19:19:15.647Z,68.50
2022-12-04T19:21:42.696Z,68.50
2022-12-04T19:24:10.460Z,68.70
2022-12-04T19:26:37.722Z,68.50
2022-12-04T19:29:05.485Z,68.70
2022-12-04T19:31:34.813Z,68.70
2022-12-04T19:34:02.206Z,68.50
2022-12-04T19:36:30.860Z,68.30
2022-12-04T19:38:59.014Z,68.20
2022-12-04T19:41:30.111Z,68.20
2022-12-04T19:43:59.527Z,67.90
2022-12-04T19:46:28.925Z,67.80
2022-12-04T19:48:58.676Z,67.80
2022-12-04T19:51:26.238Z,67.90
2022-12-04T19:53:54.313Z,67.80
2022-12-04T19:56:27.100Z,67.80
2022-12-04T19:58:56.474Z,67.80
2022-12-04T20:01:26.691Z,67.80
2022-12-04T20:03:54.035Z,67.80
2022-12-04T20:06:23.930Z,67.70
2022-12-04T20:09:11.849Z,67.90
2022-12-04T20:11:39.522Z,67.80
2022-12-04T20:14:07.362Z,67.60
2022-12-04T20:16:35.538Z,67.50
2022-12-04T20:19:04.329Z,67.50
2022-12-04T20:21:32.575Z,67.40
2022-12-04T20:24:03.021Z,67.30
2022-12-04T20:26:37.280Z,67.30
2022-12-04T20:29:05.143Z,67.40
2022-12-04T20:31:34.539Z,67.30
2022-12-04T20:34:05.277Z,67.30
2022-12-04T20:36:39.369Z,67.20
2022-12-04T20:39:07.560Z,67.10
2022-12-04T20:41:35.074Z,67.20
2022-12-04T20:44:05.943Z,67.10
2022-12-04T20:46:35.224Z,66.90
2022-12-04T20:49:04.675Z,67.10
2022-12-04T20:51:34.437Z,67.30
2022-12-04T20:54:01.708Z,67.10
2022-12-04T20:56:31.047Z,67.30
2022-12-04T20:59:00.034Z,66.90
2022-12-04T21:01:28.186Z,66.70
2022-12-04T21:03:55.600Z,66.90
2022-12-04T21:06:33.983Z,67.00
2022-12-04T21:09:05.754Z,67.30
2022-12-04T21:11:34.083Z,67.60
2022-12-04T21:14:21.651Z,67.80
2022-12-04T21:16:49.161Z,67.70
2022-12-04T21:19:18.306Z,67.90
2022-12-04T21:21:45.693Z,68.60
2022-12-04T21:24:15.718Z,68.10
2022-12-04T21:26:43.163Z,68.80
2022-12-04T21:29:10.258Z,68.50
2022-12-04T21:31:38.255Z,68.40
2022-12-04T21:34:07.435Z,68.00
2022-12-04T21:36:35.001Z,68.00
2022-12-04T21:39:02.174Z,67.90
2022-12-04T21:41:47.363Z,67.50
2022-12-04T21:44:17.133Z,67.30
2022-12-04T21:46:45.018Z,67.30
2022-12-04T21:49:13.694Z,67.30
2022-12-04T21:51:56.888Z,67.40
2022-12-04T21:54:24.820Z,67.50
2022-12-04T21:56:51.612Z,67.70
2022-12-04T21:59:18.460Z,67.70
2022-12-04T22:01:45.657Z,67.90
2022-12-04T22:04:12.720Z,67.90
2022-12-04T22:06:39.769Z,68.10
2022-12-04T22:09:08.702Z,68.20
2022-12-04T22:11:35.601Z,68.40
2022-12-04T22:14:02.437Z,68.40
2022-12-04T22:16:30.843Z,68.40
2022-12-04T22:18:59.040Z,68.40
2022-12-04T22:21:27.314Z,68.30
2022-12-04T22:23:58.954Z,68.30
2022-12-04T22:26:28.353Z,68.30
2022-12-04T22:28:55.424Z,68.20
2022-12-04T22:31:25.122Z,68.20
2022-12-04T22:33:54.138Z,68.10
2022-12-04T22:36:23.908Z,68.20
2022-12-04T22:39:09.871Z,68.10
2022-12-04T22:41:37.736Z,68.20
2022-12-04T22:44:05.091Z,67.90
2022-12-04T22:46:32.311Z,67.90
2022-12-04T22:48:59.540Z,67.90
2022-12-04T22:51:27.372Z,68.00
2022-12-04T22:53:56.444Z,67.70
2022-12-04T22:56:29.119Z,67.70
2022-12-04T22:58:57.983Z,67.70
2022-12-04T23:01:30.605Z,67.70
2022-12-04T23:03:58.229Z,67.70
2022-12-04T23:06:27.117Z,67.60
2022-12-04T23:08:55.905Z,67.60
2022-12-04T23:11:23.862Z,67.50
2022-12-04T23:13:52.627Z,67.50
2022-12-04T23:16:20.957Z,67.50
2022-12-04T23:18:48.164Z,67.50
2022-12-04T23:21:16.644Z,67.60
2022-12-04T23:23:45.763Z,67.70
2022-12-04T23:26:15.618Z,67.80
2022-12-04T23:28:43.276Z,67.80
2022-12-04T23:31:11.200Z,67.70
2022-12-04T23:33:39.500Z,68.00
2022-12-04T23:36:07.465Z,68.30
2022-12-04T23:38:36.997Z,68.70
2022-12-04T23:41:10.892Z,69.10
2022-12-04T23:43:38.015Z,69.40
2022-12-04T23:46:10.641Z,69.40
2022-12-04T23:48:39.206Z,69.80
2022-12-04T23:51:07.026Z,70.00
2022-12-04T23:53:33.926Z,70.30
2022-12-04T23:56:08.146Z,70.50
2022-12-04T23:58:36.303Z,70.60
